Vaaraa aiheuttavia sääilmiöitä ei ole odotettavissa.    Ei varoituksia

Webkamera Lisätietoa Webcam


Yksityisiä sääasemia lähellä:

Sääasema Juupajoki

Sääasema Orivesi

Sääasema Muurame

Sääasema Jyväskylä

Sääasema Vihtavuori


Löydät sääaseman tiedot myös:

Finland Weather Exchange

European Weather Network

Weather Underground

AWEKAS

Windy.com



Säätiedot lähimmiltä METAR asemilta

   
EFHA - Halli (Fin-Afb), Finland
Etäisyys asemalta: Kaakko 25 km
Päivitetty: 23.08.2019 17:50
Heikkoja sadekuuroja, Sade, Pilvistä  
Heikkoja sadekuuroja, Sade, Pilvistä  
   Tuuli: Etelä 4.1 m/s
Tuuli: Etelä 4.1 m/s
Lämpötila: 17°C
Kastepiste: 11°C
Kosteus: 68%
Ilmanpaine: 1015 hPa
Pilvisyys: Pilvistä
Näkyvyys: Enemmän kuin 10 km
Pilvitiedot: Pilvistä 1067 m,
Ukkosta
EFHA 231450Z AUTO 19008KT 160V220 9999 -SHRA OVC035 //////CB 17/11 Q1015
EFJY - Jyvaskyla (Mil/Civ), Finland
Etäisyys asemalta: Koillinen 75 km
Päivitetty: 23.08.2019 17:50
Lähialueella sadekuuroja, Pilvistä  
Lähialueella sadekuuroja, Pilvistä  
   Tuuli: Etelä 2.1 m/s
Tuuli: Etelä 2.1 m/s
Lämpötila: 16°C
Kastepiste: 13°C
Kosteus: 83%
Ilmanpaine: 1015 hPa
Pilvisyys: Pilvistä
Näkyvyys: Enemmän kuin 10 km
Pilvitiedot: Pilvistä 1250 m,
Ukkosta
EFJY 231450Z AUTO 17004KT 140V200 9999 VCSH OVC041 //////CB 16/13 Q1015
EFTP - Tampere/Pirkkala, Finland
Etäisyys asemalta: Lounas 81 km
Päivitetty: 23.08.2019 17:50
Selkeää  
Selkeää  
   Tuuli: Etelälounas 6.7 m/s
Tuuli: Etelälounas 6.7 m/s
Lämpötila: 16°C
Kastepiste: 12°C
Kosteus: 77%
Ilmanpaine: 1015 hPa
Näkyvyys: Enemmän kuin 10 km
Pilvitiedot: Selkeää
EFTP 231450Z AUTO 20013KT CAVOK 16/12 Q1015
EFSI - Seinajoki-Ilmajoki, Finland
Etäisyys asemalta: Luode 114 km
Päivitetty: 23.08.2019 17:50
Melkein pilvistä  
Melkein pilvistä  
   Tuuli: Lounas 1.5 m/s
Tuuli: Lounas 1.5 m/s
Lämpötila: 16°C
Kastepiste: 12°C
Kosteus: 77%
Ilmanpaine: 1013 hPa
Pilvisyys: Melkein pilvistä
Näkyvyys: Enemmän kuin 10 km
Pilvitiedot: Vähäistä pilvisyyttä 793 m,
Puolipilvistä 1128 m,
Melkein pilvistä 1829 m
EFSI 231450Z 22003KT 9999 FEW026 SCT037 BKN060 16/12 Q1013
EFMI - Mikkeli, Finland
Etäisyys asemalta: Itäkaakko 147 km
Päivitetty: 23.08.2019 17:50
Selkeää  
Selkeää  
   Tuuli: Kaakko 3.1 m/s
Tuuli: Kaakko 3.1 m/s
Lämpötila: 16°C
Kastepiste: 15°C
Kosteus: 94%
Ilmanpaine: 1017 hPa
Näkyvyys: Enemmän kuin 10 km
Pilvitiedot: Selkeää
EFMI 231450Z AUTO 14006KT 070V190 CAVOK 16/15 Q1017
EFPO - Pori (Mil/Civ), Finland
Etäisyys asemalta: Länsilounas 154 km
Päivitetty: 23.08.2019 17:50
Pilvistä  
Pilvistä  
   Tuuli: Lounas 3.6 m/s
Tuuli: Lounas 3.6 m/s
Lämpötila: 16°C
Kastepiste: 13°C
Kosteus: 83%
Ilmanpaine: 1015 hPa
Pilvisyys: Pilvistä
Näkyvyys: Enemmän kuin 10 km
Pilvitiedot: Melkein pilvistä 396 m,
Melkein pilvistä 640 m,
Pilvistä 1128 m
EFPO 231450Z AUTO 22007KT 9999 BKN013/// BKN021/// OVC037/// 16/13 Q1015
EFUT - Utti (Fin-Afb), Finland
Etäisyys asemalta: Kaakko 180 km
Päivitetty: 23.08.2019 17:50
Heikkoa sadetta, Melkein pilvistä  
Heikkoa sadetta, Melkein pilvistä  
   Tuuli: Lounas 5.7 m/s
Tuuli: Lounas 5.7 m/s
Lämpötila: 17°C
Kastepiste: 13°C
Kosteus: 77%
Ilmanpaine: 1018 hPa
Pilvisyys: Melkein pilvistä
Näkyvyys: Enemmän kuin 10 km
Pilvitiedot: Puolipilvistä 701 m,
Puolipilvistä 2134 m,
Melkein pilvistä 3048 m
EFUT 231450Z AUTO 22011KT 180V240 9999 -RA SCT023 SCT070 BKN100 17/13 Q1018
EFVA - Vaasa, Finland
Etäisyys asemalta: Luode 180 km
Päivitetty: 23.08.2019 17:50
Puolipilvistä  
Puolipilvistä  
   Tuuli: Länsilounas 5.7 m/s
Tuuli: Länsilounas 5.7 m/s
Lämpötila: 16°C
Kastepiste: 11°C
Kosteus: 72%
Ilmanpaine: 1012 hPa
Pilvisyys: Puolipilvistä
Näkyvyys: Enemmän kuin 10 km
Pilvitiedot: Puolipilvistä 701 m,
Puolipilvistä 1372 m
EFVA 231450Z AUTO 24011KT 9999 SCT023 SCT045 16/11 Q1012
EFHK - Helsinki/Vantaa, Finland
Etäisyys asemalta: Etelä 191 km
Päivitetty: 23.08.2019 17:50
Heikkoa sadetta, Pilvistä  
Heikkoa sadetta, Pilvistä  
   Tuuli: Etelälounas 4.1 m/s
Tuuli: Etelälounas 4.1 m/s
Lämpötila: 15°C
Kastepiste: 14°C
Kosteus: 94%
Ilmanpaine: 1018 hPa
Pilvisyys: Pilvistä
Näkyvyys: Enemmän kuin 10 km
Pilvitiedot: Vähäistä pilvisyyttä 335 m,
Puolipilvistä 488 m,
Pilvistä 1372 m
EFHK 231450Z 20008KT 9999 -RA FEW011 SCT016 OVC045 15/14 Q1018 NOSIG

Alkuperäinen skripti  Saratoga-weather.org Sovitettu myös templatelle  Weerstation Leuven

Laitteet joita käytämme:

Sääasema
Davis VP2

Sääasemaohjelma
Cumulus

Sääaseman palvelin
HP ProBook 6460b

Palveluntarjoaja
Radicenter

Davis VP2

Cumulus

HP ProBook 6460b

Radicenter




Flag Counter Cumulus Top Weather Sites